Mancos, Colorado
Current Conditions -  °F | °C
As of 6:53 PM on Sunday 21 Dec 2014 (Local Time) from KCEZ Reporting Station
Overcast Overcast  
Wind Chill: 33°   Ceiling: 5500
Heat Index: 37°   Visibility: 10mi
Dew Point: 30°   Wind: 5mph
Humidity: 76%   Direction: 50°NE
Pressure: 29.99"   Gusts: NA
Location:  37.34°N, 108.29°W
Report Text: KCEZ 220153Z AUTO 05004KT 10SM OVC055 03/M01 A2999 RMK AO2 SLP157 T00281011
Loading
Personal Weather Stations






























Interactive Weather Map New forecast layout! Learn more

10-Day Weather Forecast

Advertisements
Track Severe Weather on mobile